Terminal Aerodrome Forecast
Issued by NWS Charleston, WV

Home | Current Version | Previous Version | Text Only | Print | Product List | Glossary On
Versions: 1 2 3 4 5 6 7 8 9 10 11 12 13 14 15 16 17 18 19 20 21 22 23 24 25 26 27 28
777
FTUS41 KRLX 280547 RRB
TAFPKB
TAF
KPKB 280547Z 2806/2906 00000KT 4SM BR BKN140
     FM280800 00000KT 2SM BR BKN150
     FM280900 00000KT 1/2SM FG VV001
     FM281300 00000KT 6SM BR BKN150
     FM281700 VRB03KT P6SM VCTS BKN020CB
     FM282100 24004KT 4SM TSRA BKN025CB=

USA.gov is the U.S. government's official web portal to all federal, state and local government web resources and services.